createdAt,value
2023-03-14T00:01:02.336Z,99.90
2023-03-14T00:03:30.731Z,99.90
2023-03-14T00:06:04.290Z,99.90
2023-03-14T00:08:32.607Z,99.90
2023-03-14T00:11:05.511Z,99.90
2023-03-14T00:13:33.444Z,99.90
2023-03-14T00:16:05.166Z,99.90
2023-03-14T00:18:33.686Z,99.90
2023-03-14T00:21:04.417Z,99.90
2023-03-14T00:23:33.753Z,99.90
2023-03-14T00:26:02.651Z,99.90
2023-03-14T00:28:31.180Z,99.90
2023-03-14T00:30:59.238Z,99.90
2023-03-14T00:33:27.151Z,99.90
2023-03-14T00:35:56.576Z,99.90
2023-03-14T00:38:26.470Z,99.90
2023-03-14T00:40:55.091Z,99.90
2023-03-14T00:43:23.595Z,99.90
2023-03-14T00:45:51.700Z,99.90
2023-03-14T00:48:19.777Z,99.90
2023-03-14T00:50:48.126Z,99.90
2023-03-14T00:53:16.112Z,99.90
2023-03-14T00:55:46.182Z,99.90
2023-03-14T00:58:15.385Z,99.90
2023-03-14T01:00:44.066Z,99.90
2023-03-14T01:03:13.040Z,99.90
2023-03-14T01:05:41.151Z,99.90
2023-03-14T01:08:09.637Z,99.90
2023-03-14T01:10:40.829Z,99.90
2023-03-14T01:13:10.558Z,99.90
2023-03-14T01:15:39.552Z,99.90
2023-03-14T01:18:07.645Z,99.90
2023-03-14T01:20:35.529Z,99.90
2023-03-14T01:23:03.455Z,99.90
2023-03-14T01:25:31.390Z,99.90
2023-03-14T01:27:59.270Z,99.90
2023-03-14T01:30:28.825Z,99.90
2023-03-14T01:32:56.718Z,99.90
2023-03-14T01:35:24.642Z,99.90
2023-03-14T01:37:52.512Z,99.90
2023-03-14T01:40:20.620Z,99.90
2023-03-14T01:42:49.239Z,99.90
2023-03-14T01:45:53.497Z,99.90
2023-03-14T01:48:22.775Z,99.90
2023-03-14T01:50:50.861Z,99.90
2023-03-14T01:53:22.224Z,99.90
2023-03-14T01:55:50.515Z,99.90
2023-03-14T01:58:21.011Z,99.90
2023-03-14T02:00:48.995Z,99.90
2023-03-14T02:03:19.730Z,99.90
2023-03-14T02:05:50.470Z,99.90
2023-03-14T02:08:22.330Z,99.90
2023-03-14T02:10:51.440Z,99.90
2023-03-14T02:13:21.760Z,99.90
2023-03-14T02:15:49.985Z,99.90
2023-03-14T02:18:19.209Z,99.90
2023-03-14T02:20:55.205Z,99.90
2023-03-14T02:23:33.808Z,99.90
2023-03-14T02:26:08.049Z,99.90
2023-03-14T02:28:37.315Z,99.90
2023-03-14T02:31:05.820Z,99.90
2023-03-14T02:33:34.444Z,99.90
2023-03-14T02:36:06.999Z,99.90
2023-03-14T02:38:38.633Z,99.90
2023-03-14T02:41:07.311Z,99.90
2023-03-14T02:43:35.231Z,99.90
2023-03-14T02:46:07.326Z,99.90
2023-03-14T02:48:38.897Z,99.90
2023-03-14T02:51:07.398Z,99.90
2023-03-14T02:53:37.571Z,99.90
2023-03-14T02:56:06.054Z,99.90
2023-03-14T02:58:33.992Z,99.90
2023-03-14T03:01:01.898Z,99.90
2023-03-14T03:03:31.185Z,99.90
2023-03-14T03:05:59.568Z,99.90
2023-03-14T03:08:29.303Z,99.90
2023-03-14T03:10:58.615Z,99.90
2023-03-14T03:13:28.038Z,99.90
2023-03-14T03:15:55.910Z,99.90
2023-03-14T03:18:24.035Z,99.90
2023-03-14T03:20:53.316Z,99.90
2023-03-14T03:23:21.207Z,99.90
2023-03-14T03:25:52.570Z,99.90
2023-03-14T03:28:20.485Z,99.90
2023-03-14T03:30:48.450Z,99.90
2023-03-14T03:33:16.400Z,99.90
2023-03-14T03:35:46.184Z,99.90
2023-03-14T03:38:16.159Z,99.90
2023-03-14T03:40:44.343Z,99.90
2023-03-14T03:43:12.485Z,99.90
2023-03-14T03:45:40.397Z,99.90
2023-03-14T03:48:08.343Z,99.90
2023-03-14T03:50:36.278Z,99.90
2023-03-14T03:53:04.249Z,99.90
2023-03-14T03:55:33.466Z,99.90
2023-03-14T03:58:01.336Z,99.90
2023-03-14T04:00:29.304Z,99.90
2023-03-14T04:02:57.310Z,99.90
2023-03-14T04:05:25.246Z,99.90
2023-03-14T04:07:53.090Z,99.90
2023-03-14T04:10:20.947Z,99.90
2023-03-14T04:12:50.223Z,99.90
2023-03-14T04:15:18.081Z,99.90
2023-03-14T04:17:46.010Z,99.90
2023-03-14T04:20:14.580Z,99.90
2023-03-14T04:22:44.572Z,99.90
2023-03-14T04:25:12.684Z,99.90
2023-03-14T04:27:40.567Z,99.90
2023-03-14T04:30:11.480Z,99.90
2023-03-14T04:32:41.409Z,99.90
2023-03-14T04:35:09.943Z,99.90
2023-03-14T04:37:37.793Z,99.90
2023-03-14T04:40:07.569Z,99.90
2023-03-14T04:42:35.477Z,99.90
2023-03-14T04:45:03.582Z,99.90
2023-03-14T04:47:33.026Z,99.90
2023-03-14T04:50:00.941Z,99.90
2023-03-14T04:52:29.912Z,99.90
2023-03-14T04:54:57.911Z,99.90
2023-03-14T04:57:26.029Z,99.90
2023-03-14T04:59:53.937Z,99.90
2023-03-14T05:02:21.811Z,99.90
2023-03-14T05:04:51.032Z,99.90
2023-03-14T05:07:18.963Z,99.90
2023-03-14T05:09:46.851Z,99.90
2023-03-14T05:12:14.778Z,99.90
2023-03-14T05:14:42.670Z,99.90
2023-03-14T05:17:10.590Z,99.90
2023-03-14T05:19:38.464Z,99.90
2023-03-14T05:22:07.688Z,99.90
2023-03-14T05:24:35.654Z,99.90
2023-03-14T05:27:03.557Z,99.90
2023-03-14T05:29:31.669Z,99.90
2023-03-14T05:31:59.547Z,99.90
2023-03-14T05:34:27.464Z,99.90
2023-03-14T05:36:57.139Z,99.90
2023-03-14T05:39:26.728Z,99.90
2023-03-14T05:41:56.807Z,99.90
2023-03-14T05:44:24.980Z,99.90
2023-03-14T05:46:52.836Z,99.90
2023-03-14T05:49:20.785Z,99.90
2023-03-14T05:51:48.724Z,99.90
2023-03-14T05:54:16.620Z,99.90
2023-03-14T05:56:45.875Z,99.90
2023-03-14T05:59:14.924Z,99.90
2023-03-14T06:01:43.306Z,99.90
2023-03-14T06:04:11.253Z,99.90
2023-03-14T06:06:39.437Z,99.90
2023-03-14T06:09:07.399Z,99.90
2023-03-14T06:11:35.328Z,99.90
2023-03-14T06:14:04.810Z,99.90
2023-03-14T06:16:33.161Z,99.90
2023-03-14T06:19:01.286Z,99.90
2023-03-14T06:21:29.116Z,99.90
2023-03-14T06:23:57.226Z,99.90
2023-03-14T06:26:25.116Z,99.90
2023-03-14T06:28:54.340Z,99.90
2023-03-14T06:31:23.645Z,99.90
2023-03-14T06:33:51.525Z,99.90
2023-03-14T06:36:19.705Z,99.90
2023-03-14T06:38:47.609Z,99.90
2023-03-14T06:41:15.469Z,99.90
2023-03-14T06:43:43.355Z,99.90
2023-03-14T06:46:11.303Z,99.90
2023-03-14T06:48:40.645Z,99.90
2023-03-14T06:51:08.689Z,99.90
2023-03-14T06:53:36.727Z,99.90
2023-03-14T06:56:04.840Z,99.90
2023-03-14T06:58:32.718Z,99.90
2023-03-14T07:01:00.795Z,99.90
2023-03-14T07:03:28.810Z,99.90
2023-03-14T07:05:58.500Z,99.90
2023-03-14T07:08:26.452Z,99.90
2023-03-14T07:10:54.361Z,99.90
2023-03-14T07:13:22.216Z,99.90
2023-03-14T07:15:50.164Z,99.90
2023-03-14T07:18:18.128Z,99.90
2023-03-14T07:20:48.194Z,99.90
2023-03-14T07:23:18.529Z,99.90
2023-03-14T07:25:46.589Z,99.90
2023-03-14T07:28:14.518Z,99.90
2023-03-14T07:30:42.450Z,99.90
2023-03-14T07:33:11.591Z,99.90
2023-03-14T07:35:39.772Z,99.90
2023-03-14T07:38:07.791Z,99.90
2023-03-14T07:40:37.217Z,99.90
2023-03-14T07:43:05.140Z,99.90
2023-03-14T07:45:33.112Z,99.90
2023-03-14T07:48:02.980Z,99.90
2023-03-14T07:50:30.973Z,99.90
2023-03-14T07:52:58.893Z,99.90
2023-03-14T07:55:26.822Z,99.90
2023-03-14T07:57:56.035Z,99.90
2023-03-14T08:00:24.124Z,99.90
2023-03-14T08:02:52.047Z,99.90
2023-03-14T08:05:20.058Z,99.90
2023-03-14T08:07:47.996Z,99.90
2023-03-14T08:10:22.906Z,99.90
2023-03-14T08:12:51.070Z,99.90
2023-03-14T08:15:20.494Z,99.90
2023-03-14T08:17:51.900Z,99.90
2023-03-14T08:20:20.140Z,99.90
2023-03-14T08:22:48.035Z,99.20
2023-03-14T08:25:16.055Z,97.20
2023-03-14T08:27:44.650Z,95.00
2023-03-14T08:30:14.241Z,93.40
2023-03-14T08:32:43.868Z,91.50
2023-03-14T08:35:13.889Z,89.30
2023-03-14T08:37:42.341Z,85.30
2023-03-14T08:40:11.354Z,84.00
2023-03-14T08:42:39.915Z,80.80
2023-03-14T08:45:09.459Z,77.20
2023-03-14T08:47:37.684Z,75.70
2023-03-14T08:50:08.631Z,73.40
2023-03-14T08:52:36.538Z,72.00
2023-03-14T08:55:04.556Z,71.10
2023-03-14T08:57:32.391Z,69.70
2023-03-14T09:00:00.375Z,66.70
2023-03-14T09:02:28.619Z,64.00
2023-03-14T09:04:56.692Z,63.60
2023-03-14T09:07:25.959Z,65.50
2023-03-14T09:09:53.789Z,68.10
2023-03-14T09:12:21.722Z,71.40
2023-03-14T09:14:49.856Z,73.40
2023-03-14T09:17:17.823Z,75.60
2023-03-14T09:19:45.684Z,77.80
2023-03-14T09:22:13.636Z,74.60
2023-03-14T09:24:43.682Z,73.00
2023-03-14T09:27:11.604Z,71.50
2023-03-14T09:29:39.467Z,72.50
2023-03-14T09:32:07.604Z,74.40
2023-03-14T09:34:36.934Z,76.10
2023-03-14T09:37:05.105Z,77.60
2023-03-14T09:39:33.021Z,77.60
2023-03-14T09:42:06.959Z,78.40
2023-03-14T09:44:39.812Z,79.70
2023-03-14T09:47:11.804Z,81.20
2023-03-14T09:49:42.449Z,81.70
2023-03-14T09:52:17.071Z,82.70
2023-03-14T09:54:47.073Z,83.30
2023-03-14T09:57:19.938Z,83.30
2023-03-14T09:59:50.380Z,84.00
2023-03-14T10:02:21.380Z,83.90
2023-03-14T10:04:51.082Z,84.90
2023-03-14T10:07:21.937Z,84.50
2023-03-14T10:09:52.002Z,83.20
2023-03-14T10:12:22.065Z,81.40
2023-03-14T10:14:52.731Z,81.30
2023-03-14T10:17:22.257Z,79.30
2023-03-14T10:19:55.526Z,75.50
2023-03-14T10:22:24.986Z,74.10
2023-03-14T10:24:55.538Z,70.10
2023-03-14T10:27:31.674Z,66.70
2023-03-14T10:30:01.512Z,63.60
2023-03-14T10:32:36.816Z,60.00
2023-03-14T10:35:21.462Z,56.90
2023-03-14T10:37:56.241Z,52.60
2023-03-14T10:40:30.452Z,49.90
2023-03-14T10:43:00.942Z,47.80
2023-03-14T10:45:34.805Z,45.90
2023-03-14T10:48:20.258Z,44.20
2023-03-14T10:50:56.435Z,43.90
2023-03-14T10:53:26.530Z,42.30
2023-03-14T10:55:57.756Z,42.10
2023-03-14T10:58:30.521Z,43.40
2023-03-14T11:01:15.145Z,45.60
2023-03-14T11:03:48.922Z,47.60
2023-03-14T11:06:23.824Z,50.60
2023-03-14T11:08:59.385Z,52.70
2023-03-14T11:11:31.329Z,55.20
2023-03-14T11:14:14.956Z,57.20
2023-03-14T11:16:55.307Z,59.30
2023-03-14T11:19:39.298Z,61.40
2023-03-14T11:22:16.246Z,62.90
2023-03-14T11:24:57.896Z,65.70
2023-03-14T11:27:45.424Z,67.00
2023-03-14T11:30:21.696Z,69.40
2023-03-14T11:32:56.806Z,69.70
2023-03-14T11:35:30.897Z,73.50
2023-03-14T11:38:12.523Z,75.50
2023-03-14T11:40:41.455Z,77.70
2023-03-14T11:43:16.846Z,78.60
2023-03-14T11:45:48.695Z,78.50
2023-03-14T11:48:25.226Z,80.00
2023-03-14T11:50:56.439Z,81.40
2023-03-14T11:53:38.443Z,83.10
2023-03-14T11:56:13.221Z,85.10
2023-03-14T11:58:47.957Z,87.10
2023-03-14T12:01:22.176Z,89.80
2023-03-14T12:03:59.012Z,90.30
2023-03-14T12:06:31.475Z,90.40
2023-03-14T12:09:00.976Z,90.70
2023-03-14T12:11:42.659Z,91.10
2023-03-14T12:14:23.352Z,91.40
2023-03-14T12:16:58.292Z,92.30
2023-03-14T12:19:43.437Z,92.60
2023-03-14T12:22:24.187Z,92.80
2023-03-14T12:24:55.777Z,93.20
2023-03-14T12:28:14.712Z,93.40
2023-03-14T12:30:44.082Z,93.40
2023-03-14T12:33:29.896Z,93.80
2023-03-14T12:36:06.323Z,94.10
2023-03-14T12:38:59.263Z,94.60
2023-03-14T12:41:31.773Z,94.70
2023-03-14T12:44:50.158Z,95.10
2023-03-14T12:47:55.336Z,95.80
2023-03-14T12:50:46.373Z,95.90
2023-03-14T12:53:51.800Z,96.30
2023-03-14T12:56:26.023Z,95.30
2023-03-14T12:59:07.951Z,94.20
2023-03-14T13:01:37.091Z,92.80
2023-03-14T13:04:11.397Z,92.50
2023-03-14T13:06:54.906Z,91.40
2023-03-14T13:09:53.863Z,91.40
2023-03-14T13:12:28.760Z,90.70
2023-03-14T13:14:59.592Z,87.60
2023-03-14T13:17:36.118Z,86.80
2023-03-14T13:20:11.914Z,77.00
2023-03-14T13:22:47.579Z,69.70
2023-03-14T13:25:17.682Z,61.50
2023-03-14T13:27:45.959Z,57.10
2023-03-14T13:30:25.954Z,55.10
2023-03-14T13:32:56.697Z,53.50
2023-03-14T13:35:28.643Z,54.90
2023-03-14T13:38:18.079Z,56.90
2023-03-14T13:40:47.476Z,57.90
2023-03-14T13:43:21.945Z,59.10
2023-03-14T13:45:58.676Z,59.60
2023-03-14T13:48:30.739Z,60.10
2023-03-14T13:51:02.613Z,61.50
2023-03-14T13:53:32.184Z,62.30
2023-03-14T13:56:04.230Z,62.90
2023-03-14T13:58:33.963Z,64.40
2023-03-14T14:01:05.280Z,65.10
2023-03-14T14:03:36.255Z,66.00
2023-03-14T14:06:04.420Z,66.50
2023-03-14T14:08:35.151Z,67.30
2023-03-14T14:11:06.215Z,67.00
2023-03-14T14:13:37.202Z,65.90
2023-03-14T14:16:06.367Z,64.20
2023-03-14T14:18:35.695Z,62.30
2023-03-14T14:21:04.850Z,61.80
2023-03-14T14:23:34.204Z,61.20
2023-03-14T14:26:02.318Z,62.10
2023-03-14T14:28:32.118Z,61.90
2023-03-14T14:31:06.385Z,62.70
2023-03-14T14:33:42.393Z,61.90
2023-03-14T14:36:21.895Z,62.80
2023-03-14T14:38:55.873Z,63.20
2023-03-14T14:41:28.534Z,62.30
2023-03-14T14:43:57.065Z,62.10
2023-03-14T14:46:27.332Z,62.20
2023-03-14T14:48:58.401Z,61.80
2023-03-14T14:51:32.649Z,62.00
2023-03-14T14:54:14.519Z,62.30
2023-03-14T14:56:42.662Z,63.20
2023-03-14T14:59:26.240Z,63.10
2023-03-14T15:01:58.558Z,63.60
2023-03-14T15:04:27.113Z,64.40
2023-03-14T15:06:55.405Z,64.30
2023-03-14T15:09:24.810Z,65.30
2023-03-14T15:11:52.967Z,63.40
2023-03-14T15:14:20.914Z,63.90
2023-03-14T15:16:49.166Z,64.30
2023-03-14T15:19:25.442Z,64.60
2023-03-14T15:21:54.160Z,64.60
2023-03-14T15:24:22.173Z,65.10
2023-03-14T15:26:51.893Z,65.30
2023-03-14T15:29:19.959Z,64.70
2023-03-14T15:31:48.698Z,65.50
2023-03-14T15:34:17.535Z,65.30
2023-03-14T15:36:45.550Z,65.10
2023-03-14T15:39:13.651Z,65.10
2023-03-14T15:41:41.593Z,65.00
2023-03-14T15:44:10.789Z,64.70
2023-03-14T15:46:38.798Z,65.00
2023-03-14T15:49:06.734Z,63.80
2023-03-14T15:51:34.615Z,63.90
2023-03-14T15:54:02.565Z,64.00
2023-03-14T15:56:31.994Z,64.50
2023-03-14T15:59:00.339Z,63.80
2023-03-14T16:01:29.682Z,64.30
2023-03-14T16:03:57.775Z,64.80
2023-03-14T16:06:25.855Z,65.20
2023-03-14T16:08:53.761Z,65.60
2023-03-14T16:11:23.045Z,65.70
2023-03-14T16:13:51.285Z,65.70
2023-03-14T16:16:19.376Z,66.20
2023-03-14T16:18:48.827Z,66.60
2023-03-14T16:21:18.713Z,66.80
2023-03-14T16:23:47.102Z,67.60
2023-03-14T16:26:16.573Z,68.00
2023-03-14T16:28:45.366Z,67.80
2023-03-14T16:31:16.336Z,68.10
2023-03-14T16:33:44.570Z,68.50
2023-03-14T16:36:15.332Z,68.60
2023-03-14T16:38:45.074Z,68.90
2023-03-14T16:41:14.718Z,69.20
2023-03-14T16:43:42.670Z,69.40
2023-03-14T16:46:13.825Z,69.70
2023-03-14T16:48:41.822Z,70.00
2023-03-14T16:51:09.794Z,71.00
2023-03-14T16:53:39.021Z,70.40
2023-03-14T16:56:07.864Z,71.00
2023-03-14T16:58:35.977Z,70.60
2023-03-14T17:01:10.447Z,70.60
2023-03-14T17:03:39.351Z,71.10
2023-03-14T17:06:07.841Z,71.90
2023-03-14T17:08:36.112Z,72.10
2023-03-14T17:11:05.687Z,72.50
2023-03-14T17:13:33.722Z,72.20
2023-03-14T17:16:02.843Z,72.10
2023-03-14T17:18:32.226Z,72.30
2023-03-14T17:21:01.126Z,72.10
2023-03-14T17:23:30.940Z,72.20
2023-03-14T17:25:59.044Z,72.50
2023-03-14T17:28:29.086Z,72.90
2023-03-14T17:31:08.236Z,73.10
2023-03-14T17:33:36.806Z,73.50
2023-03-14T17:36:05.734Z,73.70
2023-03-14T17:38:35.051Z,75.40
2023-03-14T17:41:03.065Z,76.80
2023-03-14T17:43:33.658Z,78.00
2023-03-14T17:46:06.120Z,78.40
2023-03-14T17:48:34.207Z,79.50
2023-03-14T17:51:02.501Z,80.40
2023-03-14T17:53:31.445Z,81.00
2023-03-14T17:55:59.751Z,81.90
2023-03-14T17:58:28.267Z,83.20
2023-03-14T18:00:58.149Z,84.00
2023-03-14T18:03:26.123Z,84.90
2023-03-14T18:05:54.080Z,85.10
2023-03-14T18:08:22.033Z,85.90
2023-03-14T18:10:55.101Z,86.50
2023-03-14T18:13:23.020Z,87.20
2023-03-14T18:15:52.113Z,87.80
2023-03-14T18:18:21.938Z,88.10
2023-03-14T18:20:51.770Z,88.40
2023-03-14T18:23:19.782Z,89.10
2023-03-14T18:25:47.840Z,89.50
2023-03-14T18:28:16.122Z,90.00
2023-03-14T18:30:47.100Z,90.40
2023-03-14T18:33:15.059Z,90.60
2023-03-14T18:35:44.896Z,91.00
2023-03-14T18:38:12.886Z,91.40
2023-03-14T18:40:41.185Z,91.70
2023-03-14T18:43:09.105Z,92.10
2023-03-14T18:45:37.011Z,92.70
2023-03-14T18:48:05.355Z,92.60
2023-03-14T18:50:33.412Z,92.80
2023-03-14T18:53:03.298Z,93.00
2023-03-14T18:55:31.558Z,93.30
2023-03-14T18:57:59.516Z,93.30
2023-03-14T19:00:28.427Z,93.30
2023-03-14T19:02:56.316Z,92.80
2023-03-14T19:05:24.287Z,92.90
2023-03-14T19:07:52.172Z,92.60
2023-03-14T19:10:21.462Z,92.60
2023-03-14T19:12:49.373Z,92.60
2023-03-14T19:15:17.482Z,92.90
2023-03-14T19:17:45.574Z,93.00
2023-03-14T19:20:13.907Z,93.20
2023-03-14T19:22:42.569Z,93.20
2023-03-14T19:25:11.433Z,92.90
2023-03-14T19:27:40.802Z,93.10
2023-03-14T19:30:09.613Z,93.10
2023-03-14T19:32:37.606Z,93.20
2023-03-14T19:35:06.034Z,93.50
2023-03-14T19:37:33.922Z,93.20
2023-03-14T19:40:01.890Z,92.90
2023-03-14T19:42:29.832Z,92.70
2023-03-14T19:44:59.085Z,92.90
2023-03-14T19:47:26.972Z,92.90
2023-03-14T19:49:55.078Z,92.90
2023-03-14T19:52:22.976Z,93.10
2023-03-14T19:54:50.952Z,92.90
2023-03-14T19:57:18.930Z,92.90
2023-03-14T19:59:46.814Z,93.00
2023-03-14T20:02:16.669Z,93.10
2023-03-14T20:04:46.522Z,93.20
2023-03-14T20:07:15.051Z,93.80
2023-03-14T20:09:43.710Z,93.60
2023-03-14T20:12:11.637Z,93.60
2023-03-14T20:14:39.565Z,94.20
2023-03-14T20:17:08.180Z,94.10
2023-03-14T20:19:37.460Z,93.70
2023-03-14T20:22:05.415Z,93.80
2023-03-14T20:24:33.582Z,93.80
2023-03-14T20:27:01.844Z,93.50
2023-03-14T20:29:29.768Z,93.50
2023-03-14T20:31:57.684Z,93.40
2023-03-14T20:34:25.766Z,93.50
2023-03-14T20:36:55.017Z,93.60
2023-03-14T20:39:24.631Z,93.60
2023-03-14T20:41:52.549Z,93.60
2023-03-14T20:44:20.422Z,93.30
2023-03-14T20:46:48.473Z,93.30
2023-03-14T20:49:16.393Z,93.10
2023-03-14T20:51:44.284Z,92.60
2023-03-14T20:54:14.998Z,92.70
2023-03-14T20:56:46.165Z,93.10
2023-03-14T20:59:14.325Z,93.60
2023-03-14T21:01:44.469Z,93.80
2023-03-14T21:04:12.446Z,93.90
2023-03-14T21:06:42.191Z,94.10
2023-03-14T21:09:10.518Z,94.20
2023-03-14T21:11:42.618Z,94.30
2023-03-14T21:14:10.490Z,94.40
2023-03-14T21:16:38.446Z,94.40
2023-03-14T21:19:06.455Z,94.60
2023-03-14T21:21:34.441Z,94.50
2023-03-14T21:24:02.455Z,94.40
2023-03-14T21:26:31.574Z,94.50
2023-03-14T21:29:02.910Z,94.60
2023-03-14T21:31:31.080Z,94.50
2023-03-14T21:34:00.247Z,94.70
2023-03-14T21:36:28.190Z,94.90
2023-03-14T21:38:56.030Z,95.20
2023-03-14T21:41:24.173Z,94.80
2023-03-14T21:43:52.177Z,95.00
2023-03-14T21:46:21.530Z,95.10
2023-03-14T21:48:49.436Z,95.10
2023-03-14T21:51:17.355Z,95.10
2023-03-14T21:53:45.671Z,95.50
2023-03-14T21:56:14.435Z,96.20
2023-03-14T21:58:42.529Z,96.70
2023-03-14T22:01:11.544Z,97.20
2023-03-14T22:03:40.957Z,97.40
2023-03-14T22:06:09.184Z,97.70
2023-03-14T22:08:37.136Z,98.00
2023-03-14T22:11:08.164Z,98.40
2023-03-14T22:13:36.087Z,98.60
2023-03-14T22:16:04.132Z,99.00
2023-03-14T22:18:32.187Z,99.30
2023-03-14T22:21:01.416Z,99.90
2023-03-14T22:23:29.368Z,99.80
2023-03-14T22:25:57.292Z,99.90
2023-03-14T22:28:25.203Z,99.90
2023-03-14T22:30:53.397Z,99.90
2023-03-14T22:33:21.843Z,99.90
2023-03-14T22:35:50.689Z,99.90
2023-03-14T22:38:20.238Z,99.90
2023-03-14T22:40:48.266Z,99.90
2023-03-14T22:43:16.211Z,99.90
2023-03-14T22:45:44.189Z,99.90
2023-03-14T22:48:12.128Z,99.90
2023-03-14T22:50:40.827Z,99.90
2023-03-14T22:53:09.869Z,99.90
2023-03-14T22:55:39.169Z,99.90
2023-03-14T22:58:07.072Z,99.90
2023-03-14T23:00:34.965Z,99.90
2023-03-14T23:03:02.969Z,99.90
2023-03-14T23:05:30.890Z,99.90
2023-03-14T23:07:58.790Z,99.90
2023-03-14T23:10:26.789Z,99.90
2023-03-14T23:12:57.552Z,99.90
2023-03-14T23:15:25.858Z,99.90
2023-03-14T23:17:53.743Z,99.90
2023-03-14T23:20:21.685Z,99.90
2023-03-14T23:22:49.589Z,99.90
2023-03-14T23:25:18.255Z,99.90
2023-03-14T23:27:46.397Z,99.90
2023-03-14T23:30:17.224Z,99.90
2023-03-14T23:32:45.160Z,99.90
2023-03-14T23:35:14.012Z,99.90
2023-03-14T23:37:42.240Z,99.90
2023-03-14T23:40:11.463Z,99.90
2023-03-14T23:42:39.877Z,99.90
2023-03-14T23:45:08.968Z,99.90
2023-03-14T23:47:38.219Z,99.90
2023-03-14T23:50:06.890Z,99.90
2023-03-14T23:52:34.804Z,99.90
2023-03-14T23:55:02.658Z,99.90
2023-03-14T23:57:30.618Z,99.90
2023-03-14T23:59:58.545Z,99.90
